sensor_id;sensor_type;location;lat;lon;timestamp;P1;durP1;ratioP1;P2;durP2;ratioP2
58017;SDS011;43810;50.860;19.226;2022-07-04T00:00:12;9.77;;;6.63;;
58017;SDS011;43810;50.860;19.226;2022-07-04T00:02:58;11.15;;;7.72;;
58017;SDS011;43810;50.860;19.226;2022-07-04T00:05:25;9.35;;;7.10;;
58017;SDS011;43810;50.860;19.226;2022-07-04T00:07:51;13.75;;;7.47;;
58017;SDS011;43810;50.860;19.226;2022-07-04T00:10:18;12.00;;;7.30;;
58017;SDS011;43810;50.860;19.226;2022-07-04T00:12:46;9.18;;;6.53;;
58017;SDS011;43810;50.860;19.226;2022-07-04T00:15:13;12.38;;;7.53;;
58017;SDS011;43810;50.860;19.226;2022-07-04T00:17:39;9.23;;;6.40;;
58017;SDS011;43810;50.860;19.226;2022-07-04T00:20:06;9.65;;;6.82;;
58017;SDS011;43810;50.860;19.226;2022-07-04T00:22:33;11.30;;;7.10;;
58017;SDS011;43810;50.860;19.226;2022-07-04T00:24:59;9.40;;;7.00;;
58017;SDS011;43810;50.860;19.226;2022-07-04T00:27:25;8.60;;;6.25;;
58017;SDS011;43810;50.860;19.226;2022-07-04T00:29:51;9.27;;;6.72;;
58017;SDS011;43810;50.860;19.226;2022-07-04T00:32:17;9.88;;;6.85;;
58017;SDS011;43810;50.860;19.226;2022-07-04T00:34:43;9.80;;;6.72;;
58017;SDS011;43810;50.860;19.226;2022-07-04T00:37:09;9.02;;;6.63;;
58017;SDS011;43810;50.860;19.226;2022-07-04T00:39:35;12.15;;;7.22;;
58017;SDS011;43810;50.860;19.226;2022-07-04T00:42:01;9.18;;;6.65;;
58017;SDS011;43810;50.860;19.226;2022-07-04T00:44:27;10.02;;;6.53;;
58017;SDS011;43810;50.860;19.226;2022-07-04T00:46:52;9.55;;;7.13;;
58017;SDS011;43810;50.860;19.226;2022-07-04T00:49:18;11.10;;;7.55;;
58017;SDS011;43810;50.860;19.226;2022-07-04T00:51:44;9.25;;;7.00;;
58017;SDS011;43810;50.860;19.226;2022-07-04T00:54:12;9.15;;;6.93;;
58017;SDS011;43810;50.860;19.226;2022-07-04T00:56:41;12.70;;;7.60;;
58017;SDS011;43810;50.860;19.226;2022-07-04T00:59:08;9.98;;;7.00;;
58017;SDS011;43810;50.860;19.226;2022-07-04T01:01:34;11.82;;;7.57;;
58017;SDS011;43810;50.860;19.226;2022-07-04T01:04:01;10.98;;;7.30;;
58017;SDS011;43810;50.860;19.226;2022-07-04T01:06:28;9.27;;;6.38;;
58017;SDS011;43810;50.860;19.226;2022-07-04T01:08:54;10.80;;;6.50;;
58017;SDS011;43810;50.860;19.226;2022-07-04T01:11:20;10.10;;;6.38;;
58017;SDS011;43810;50.860;19.226;2022-07-04T01:13:46;8.27;;;6.30;;
58017;SDS011;43810;50.860;19.226;2022-07-04T01:16:12;10.40;;;7.22;;
58017;SDS011;43810;50.860;19.226;2022-07-04T01:18:38;8.70;;;6.68;;
58017;SDS011;43810;50.860;19.226;2022-07-04T01:21:05;9.95;;;6.88;;
58017;SDS011;43810;50.860;19.226;2022-07-04T01:23:31;10.07;;;7.10;;
58017;SDS011;43810;50.860;19.226;2022-07-04T01:25:57;10.73;;;6.53;;
58017;SDS011;43810;50.860;19.226;2022-07-04T01:28:23;10.00;;;7.32;;
58017;SDS011;43810;50.860;19.226;2022-07-04T01:30:49;9.15;;;6.95;;
58017;SDS011;43810;50.860;19.226;2022-07-04T01:33:16;10.93;;;6.93;;
58017;SDS011;43810;50.860;19.226;2022-07-04T01:35:45;10.63;;;7.05;;
58017;SDS011;43810;50.860;19.226;2022-07-04T01:38:11;8.75;;;6.47;;
58017;SDS011;43810;50.860;19.226;2022-07-04T01:40:37;10.85;;;6.35;;
58017;SDS011;43810;50.860;19.226;2022-07-04T01:43:03;10.63;;;6.97;;
58017;SDS011;43810;50.860;19.226;2022-07-04T01:45:28;13.85;;;6.80;;
58017;SDS011;43810;50.860;19.226;2022-07-04T01:47:55;8.90;;;6.38;;
58017;SDS011;43810;50.860;19.226;2022-07-04T01:50:20;8.57;;;6.30;;
58017;SDS011;43810;50.860;19.226;2022-07-04T01:52:46;9.02;;;6.43;;
58017;SDS011;43810;50.860;19.226;2022-07-04T01:55:12;11.73;;;7.00;;
58017;SDS011;43810;50.860;19.226;2022-07-04T01:57:39;11.65;;;6.78;;
58017;SDS011;43810;50.860;19.226;2022-07-04T02:00:05;8.77;;;6.63;;
58017;SDS011;43810;50.860;19.226;2022-07-04T02:02:51;10.27;;;7.68;;
58017;SDS011;43810;50.860;19.226;2022-07-04T02:05:16;9.88;;;6.60;;
58017;SDS011;43810;50.860;19.226;2022-07-04T02:07:43;10.88;;;6.50;;
58017;SDS011;43810;50.860;19.226;2022-07-04T02:10:09;8.68;;;6.82;;
58017;SDS011;43810;50.860;19.226;2022-07-04T02:12:36;9.32;;;6.65;;
58017;SDS011;43810;50.860;19.226;2022-07-04T02:15:21;9.82;;;6.95;;
58017;SDS011;43810;50.860;19.226;2022-07-04T02:17:47;11.88;;;6.70;;
58017;SDS011;43810;50.860;19.226;2022-07-04T02:20:13;9.07;;;6.43;;
58017;SDS011;43810;50.860;19.226;2022-07-04T02:22:39;10.23;;;7.00;;
58017;SDS011;43810;50.860;19.226;2022-07-04T02:25:05;10.50;;;7.03;;
58017;SDS011;43810;50.860;19.226;2022-07-04T02:27:31;10.73;;;6.63;;
58017;SDS011;43810;50.860;19.226;2022-07-04T02:29:57;11.95;;;6.63;;
58017;SDS011;43810;50.860;19.226;2022-07-04T02:32:23;13.07;;;7.68;;
58017;SDS011;43810;50.860;19.226;2022-07-04T02:34:49;12.52;;;8.50;;
58017;SDS011;43810;50.860;19.226;2022-07-04T02:37:15;11.50;;;8.10;;
58017;SDS011;43810;50.860;19.226;2022-07-04T02:39:41;12.63;;;8.07;;
58017;SDS011;43810;50.860;19.226;2022-07-04T02:42:07;12.10;;;8.02;;
58017;SDS011;43810;50.860;19.226;2022-07-04T02:44:33;11.05;;;7.45;;
58017;SDS011;43810;50.860;19.226;2022-07-04T02:46:58;11.73;;;7.10;;
58017;SDS011;43810;50.860;19.226;2022-07-04T02:49:25;10.98;;;7.47;;
58017;SDS011;43810;50.860;19.226;2022-07-04T02:51:51;14.93;;;7.47;;
58017;SDS011;43810;50.860;19.226;2022-07-04T02:54:17;12.95;;;7.32;;
58017;SDS011;43810;50.860;19.226;2022-07-04T02:56:43;9.88;;;7.57;;
58017;SDS011;43810;50.860;19.226;2022-07-04T02:59:09;10.50;;;7.75;;
58017;SDS011;43810;50.860;19.226;2022-07-04T03:01:35;10.77;;;7.00;;
58017;SDS011;43810;50.860;19.226;2022-07-04T03:04:01;12.07;;;8.68;;
58017;SDS011;43810;50.860;19.226;2022-07-04T03:06:28;12.02;;;7.88;;
58017;SDS011;43810;50.860;19.226;2022-07-04T03:08:53;9.43;;;6.85;;
58017;SDS011;43810;50.860;19.226;2022-07-04T03:11:19;12.98;;;6.90;;
58017;SDS011;43810;50.860;19.226;2022-07-04T03:13:45;12.77;;;7.32;;
58017;SDS011;43810;50.860;19.226;2022-07-04T03:16:11;11.60;;;6.75;;
58017;SDS011;43810;50.860;19.226;2022-07-04T03:18:37;11.15;;;7.20;;
58017;SDS011;43810;50.860;19.226;2022-07-04T03:21:03;8.75;;;6.68;;
58017;SDS011;43810;50.860;19.226;2022-07-04T03:23:32;9.52;;;6.18;;
58017;SDS011;43810;50.860;19.226;2022-07-04T03:25:58;10.27;;;7.30;;
58017;SDS011;43810;50.860;19.226;2022-07-04T03:28:25;8.95;;;6.72;;
58017;SDS011;43810;50.860;19.226;2022-07-04T03:30:51;12.13;;;7.03;;
58017;SDS011;43810;50.860;19.226;2022-07-04T03:33:17;10.75;;;7.07;;
58017;SDS011;43810;50.860;19.226;2022-07-04T03:35:43;10.73;;;6.35;;
58017;SDS011;43810;50.860;19.226;2022-07-04T03:38:08;9.60;;;7.13;;
58017;SDS011;43810;50.860;19.226;2022-07-04T03:40:34;14.07;;;5.95;;
58017;SDS011;43810;50.860;19.226;2022-07-04T03:43:02;9.68;;;6.70;;
58017;SDS011;43810;50.860;19.226;2022-07-04T03:45:28;13.40;;;6.78;;
58017;SDS011;43810;50.860;19.226;2022-07-04T03:47:54;12.57;;;7.40;;
58017;SDS011;43810;50.860;19.226;2022-07-04T03:50:22;9.27;;;7.38;;
58017;SDS011;43810;50.860;19.226;2022-07-04T03:52:47;14.85;;;6.65;;
58017;SDS011;43810;50.860;19.226;2022-07-04T03:55:13;9.32;;;6.88;;
58017;SDS011;43810;50.860;19.226;2022-07-04T03:57:39;14.52;;;7.65;;
58017;SDS011;43810;50.860;19.226;2022-07-04T04:00:05;12.82;;;6.85;;
58017;SDS011;43810;50.860;19.226;2022-07-04T04:02:33;8.63;;;6.55;;
58017;SDS011;43810;50.860;19.226;2022-07-04T04:04:59;9.43;;;6.72;;
58017;SDS011;43810;50.860;19.226;2022-07-04T04:07:43;9.30;;;6.63;;
58017;SDS011;43810;50.860;19.226;2022-07-04T04:10:09;6.90;;;5.25;;
58017;SDS011;43810;50.860;19.226;2022-07-04T04:12:35;5.88;;;5.00;;
58017;SDS011;43810;50.860;19.226;2022-07-04T04:15:00;6.60;;;5.22;;
58017;SDS011;43810;50.860;19.226;2022-07-04T04:17:26;10.68;;;5.43;;
58017;SDS011;43810;50.860;19.226;2022-07-04T04:19:52;7.13;;;5.68;;
58017;SDS011;43810;50.860;19.226;2022-07-04T04:22:17;6.88;;;6.13;;
58017;SDS011;43810;50.860;19.226;2022-07-04T04:24:43;7.38;;;5.28;;
58017;SDS011;43810;50.860;19.226;2022-07-04T04:27:09;9.27;;;5.43;;
58017;SDS011;43810;50.860;19.226;2022-07-04T04:29:34;6.88;;;4.88;;
58017;SDS011;43810;50.860;19.226;2022-07-04T04:32:00;8.55;;;5.93;;
58017;SDS011;43810;50.860;19.226;2022-07-04T04:34:26;7.57;;;5.10;;
58017;SDS011;43810;50.860;19.226;2022-07-04T04:36:51;7.22;;;4.75;;
58017;SDS011;43810;50.860;19.226;2022-07-04T04:39:17;7.63;;;4.93;;
58017;SDS011;43810;50.860;19.226;2022-07-04T04:41:43;5.45;;;4.78;;
58017;SDS011;43810;50.860;19.226;2022-07-04T04:44:08;5.95;;;4.80;;
58017;SDS011;43810;50.860;19.226;2022-07-04T04:46:34;6.00;;;4.00;;
58017;SDS011;43810;50.860;19.226;2022-07-04T04:49:00;5.95;;;4.97;;
58017;SDS011;43810;50.860;19.226;2022-07-04T04:51:25;4.63;;;4.15;;
58017;SDS011;43810;50.860;19.226;2022-07-04T04:53:51;4.93;;;4.35;;
58017;SDS011;43810;50.860;19.226;2022-07-04T04:56:17;5.90;;;4.30;;
58017;SDS011;43810;50.860;19.226;2022-07-04T04:58:42;5.95;;;4.38;;
58017;SDS011;43810;50.860;19.226;2022-07-04T05:01:08;6.35;;;4.50;;
58017;SDS011;43810;50.860;19.226;2022-07-04T05:03:34;5.53;;;4.00;;
58017;SDS011;43810;50.860;19.226;2022-07-04T05:06:00;4.95;;;3.88;;
58017;SDS011;43810;50.860;19.226;2022-07-04T05:08:25;5.22;;;4.10;;
58017;SDS011;43810;50.860;19.226;2022-07-04T05:10:52;5.20;;;4.25;;
58017;SDS011;43810;50.860;19.226;2022-07-04T05:13:18;5.10;;;4.03;;
58017;SDS011;43810;50.860;19.226;2022-07-04T05:15:44;5.88;;;4.10;;
58017;SDS011;43810;50.860;19.226;2022-07-04T05:18:11;5.10;;;4.40;;
58017;SDS011;43810;50.860;19.226;2022-07-04T05:20:37;5.35;;;4.28;;
58017;SDS011;43810;50.860;19.226;2022-07-04T05:23:05;4.97;;;4.47;;
58017;SDS011;43810;50.860;19.226;2022-07-04T05:25:31;6.80;;;4.78;;
58017;SDS011;43810;50.860;19.226;2022-07-04T05:28:00;5.97;;;4.75;;
58017;SDS011;43810;50.860;19.226;2022-07-04T05:30:26;4.95;;;4.30;;
58017;SDS011;43810;50.860;19.226;2022-07-04T05:32:51;5.18;;;4.68;;
58017;SDS011;43810;50.860;19.226;2022-07-04T05:35:17;7.13;;;4.78;;
58017;SDS011;43810;50.860;19.226;2022-07-04T05:37:43;5.60;;;4.72;;
58017;SDS011;43810;50.860;19.226;2022-07-04T05:40:09;7.57;;;4.93;;
58017;SDS011;43810;50.860;19.226;2022-07-04T05:42:35;7.68;;;5.10;;
58017;SDS011;43810;50.860;19.226;2022-07-04T05:45:02;6.15;;;4.60;;
58017;SDS011;43810;50.860;19.226;2022-07-04T05:47:28;5.40;;;4.55;;
58017;SDS011;43810;50.860;19.226;2022-07-04T05:49:53;8.80;;;5.50;;
58017;SDS011;43810;50.860;19.226;2022-07-04T05:52:19;9.40;;;5.82;;
58017;SDS011;43810;50.860;19.226;2022-07-04T05:54:45;10.77;;;5.82;;
58017;SDS011;43810;50.860;19.226;2022-07-04T05:57:11;10.68;;;5.88;;
58017;SDS011;43810;50.860;19.226;2022-07-04T05:59:36;8.77;;;6.10;;
58017;SDS011;43810;50.860;19.226;2022-07-04T06:02:02;11.35;;;6.68;;
58017;SDS011;43810;50.860;19.226;2022-07-04T06:04:28;11.93;;;7.13;;
58017;SDS011;43810;50.860;19.226;2022-07-04T06:06:54;11.90;;;7.00;;
58017;SDS011;43810;50.860;19.226;2022-07-04T06:09:20;13.27;;;7.35;;
58017;SDS011;43810;50.860;19.226;2022-07-04T06:11:45;10.52;;;6.93;;
58017;SDS011;43810;50.860;19.226;2022-07-04T06:14:12;11.80;;;6.43;;
58017;SDS011;43810;50.860;19.226;2022-07-04T06:16:37;15.02;;;7.25;;
58017;SDS011;43810;50.860;19.226;2022-07-04T06:19:03;12.07;;;6.57;;
58017;SDS011;43810;50.860;19.226;2022-07-04T06:21:29;10.60;;;6.53;;
58017;SDS011;43810;50.860;19.226;2022-07-04T06:23:54;10.20;;;6.57;;
58017;SDS011;43810;50.860;19.226;2022-07-04T06:26:22;14.45;;;6.57;;
58017;SDS011;43810;50.860;19.226;2022-07-04T06:28:48;11.60;;;7.18;;
58017;SDS011;43810;50.860;19.226;2022-07-04T06:31:14;12.38;;;7.60;;
58017;SDS011;43810;50.860;19.226;2022-07-04T06:33:40;12.80;;;7.32;;
58017;SDS011;43810;50.860;19.226;2022-07-04T06:36:24;9.93;;;5.97;;
58017;SDS011;43810;50.860;19.226;2022-07-04T06:38:50;12.48;;;6.20;;
58017;SDS011;43810;50.860;19.226;2022-07-04T06:41:16;12.98;;;7.32;;
58017;SDS011;43810;50.860;19.226;2022-07-04T06:43:42;10.48;;;5.95;;
58017;SDS011;43810;50.860;19.226;2022-07-04T06:46:07;11.05;;;6.10;;
58017;SDS011;43810;50.860;19.226;2022-07-04T06:48:33;9.40;;;6.47;;
58017;SDS011;43810;50.860;19.226;2022-07-04T06:50:59;9.18;;;5.43;;
58017;SDS011;43810;50.860;19.226;2022-07-04T06:53:24;8.07;;;5.13;;
58017;SDS011;43810;50.860;19.226;2022-07-04T06:55:50;8.35;;;5.57;;
58017;SDS011;43810;50.860;19.226;2022-07-04T06:58:16;8.40;;;5.00;;
58017;SDS011;43810;50.860;19.226;2022-07-04T07:00:41;7.55;;;4.68;;
58017;SDS011;43810;50.860;19.226;2022-07-04T07:03:08;9.27;;;5.53;;
58017;SDS011;43810;50.860;19.226;2022-07-04T07:05:34;9.18;;;4.90;;
58017;SDS011;43810;50.860;19.226;2022-07-04T07:08:02;5.95;;;5.03;;
58017;SDS011;43810;50.860;19.226;2022-07-04T07:10:29;7.82;;;5.20;;
58017;SDS011;43810;50.860;19.226;2022-07-04T07:12:55;5.07;;;4.25;;
58017;SDS011;43810;50.860;19.226;2022-07-04T07:15:20;6.28;;;4.40;;
58017;SDS011;43810;50.860;19.226;2022-07-04T07:17:46;6.20;;;4.63;;
58017;SDS011;43810;50.860;19.226;2022-07-04T07:20:12;5.50;;;4.45;;
58017;SDS011;43810;50.860;19.226;2022-07-04T07:22:39;5.30;;;4.15;;
58017;SDS011;43810;50.860;19.226;2022-07-04T07:25:06;5.47;;;4.40;;
58017;SDS011;43810;50.860;19.226;2022-07-04T07:27:32;9.35;;;4.20;;
58017;SDS011;43810;50.860;19.226;2022-07-04T07:29:57;5.00;;;4.10;;
58017;SDS011;43810;50.860;19.226;2022-07-04T07:32:23;7.43;;;4.20;;
58017;SDS011;43810;50.860;19.226;2022-07-04T07:34:49;5.60;;;3.88;;
58017;SDS011;43810;50.860;19.226;2022-07-04T07:37:14;4.55;;;4.07;;
58017;SDS011;43810;50.860;19.226;2022-07-04T07:39:43;6.03;;;4.50;;
58017;SDS011;43810;50.860;19.226;2022-07-04T07:42:09;4.82;;;4.28;;
58017;SDS011;43810;50.860;19.226;2022-07-04T07:44:35;8.00;;;3.47;;
58017;SDS011;43810;50.860;19.226;2022-07-04T07:47:00;4.85;;;3.45;;
58017;SDS011;43810;50.860;19.226;2022-07-04T07:49:27;6.93;;;3.60;;
58017;SDS011;43810;50.860;19.226;2022-07-04T07:51:53;4.78;;;3.80;;
58017;SDS011;43810;50.860;19.226;2022-07-04T07:54:20;5.22;;;3.22;;
58017;SDS011;43810;50.860;19.226;2022-07-04T07:56:46;6.10;;;3.40;;
58017;SDS011;43810;50.860;19.226;2022-07-04T07:59:12;3.85;;;3.45;;
58017;SDS011;43810;50.860;19.226;2022-07-04T08:01:37;5.63;;;3.42;;
58017;SDS011;43810;50.860;19.226;2022-07-04T08:04:03;4.28;;;2.92;;
58017;SDS011;43810;50.860;19.226;2022-07-04T08:06:47;5.20;;;2.97;;
58017;SDS011;43810;50.860;19.226;2022-07-04T08:09:13;4.75;;;2.67;;
58017;SDS011;43810;50.860;19.226;2022-07-04T08:11:40;5.38;;;3.10;;
58017;SDS011;43810;50.860;19.226;2022-07-04T08:14:06;2.80;;;2.60;;
58017;SDS011;43810;50.860;19.226;2022-07-04T08:16:33;3.90;;;2.58;;
58017;SDS011;43810;50.860;19.226;2022-07-04T08:18:59;3.45;;;2.70;;
58017;SDS011;43810;50.860;19.226;2022-07-04T08:21:25;5.07;;;2.97;;
58017;SDS011;43810;50.860;19.226;2022-07-04T08:23:50;3.10;;;2.90;;
58017;SDS011;43810;50.860;19.226;2022-07-04T08:26:16;3.80;;;3.03;;
58017;SDS011;43810;50.860;19.226;2022-07-04T08:28:42;4.57;;;2.67;;
58017;SDS011;43810;50.860;19.226;2022-07-04T08:31:07;5.65;;;3.10;;
58017;SDS011;43810;50.860;19.226;2022-07-04T08:33:33;3.90;;;2.90;;
58017;SDS011;43810;50.860;19.226;2022-07-04T08:35:59;4.53;;;2.90;;
58017;SDS011;43810;50.860;19.226;2022-07-04T08:38:24;3.15;;;2.85;;
58017;SDS011;43810;50.860;19.226;2022-07-04T08:40:56;4.78;;;3.10;;
58017;SDS011;43810;50.860;19.226;2022-07-04T08:43:23;3.27;;;2.93;;
58017;SDS011;43810;50.860;19.226;2022-07-04T08:45:52;3.70;;;2.80;;
58017;SDS011;43810;50.860;19.226;2022-07-04T08:48:19;5.22;;;2.85;;
58017;SDS011;43810;50.860;19.226;2022-07-04T08:50:49;4.05;;;2.75;;
58017;SDS011;43810;50.860;19.226;2022-07-04T08:53:21;2.78;;;2.47;;
58017;SDS011;43810;50.860;19.226;2022-07-04T08:55:51;3.15;;;2.63;;
58017;SDS011;43810;50.860;19.226;2022-07-04T08:58:37;2.83;;;2.45;;
58017;SDS011;43810;50.860;19.226;2022-07-04T09:01:07;3.22;;;2.92;;
58017;SDS011;43810;50.860;19.226;2022-07-04T09:03:41;3.15;;;2.85;;
58017;SDS011;43810;50.860;19.226;2022-07-04T09:06:08;3.13;;;2.92;;
58017;SDS011;43810;50.860;19.226;2022-07-04T09:08:34;4.65;;;3.42;;
58017;SDS011;43810;50.860;19.226;2022-07-04T09:11:00;3.63;;;3.00;;
58017;SDS011;43810;50.860;19.226;2022-07-04T09:13:27;4.53;;;2.95;;
58017;SDS011;43810;50.860;19.226;2022-07-04T09:15:55;2.88;;;2.55;;
58017;SDS011;43810;50.860;19.226;2022-07-04T09:18:25;3.00;;;2.80;;
58017;SDS011;43810;50.860;19.226;2022-07-04T09:20:52;2.80;;;2.60;;
58017;SDS011;43810;50.860;19.226;2022-07-04T09:23:26;5.18;;;2.65;;
58017;SDS011;43810;50.860;19.226;2022-07-04T09:28:39;2.97;;;2.75;;
58017;SDS011;43810;50.860;19.226;2022-07-04T09:31:26;4.40;;;2.83;;
58017;SDS011;43810;50.860;19.226;2022-07-04T09:33:55;3.30;;;2.75;;
58017;SDS011;43810;50.860;19.226;2022-07-04T09:36:28;5.93;;;2.92;;
58017;SDS011;43810;50.860;19.226;2022-07-04T09:39:14;5.22;;;3.03;;
58017;SDS011;43810;50.860;19.226;2022-07-04T09:41:49;8.93;;;2.60;;
58017;SDS011;43810;50.860;19.226;2022-07-04T09:44:26;4.68;;;2.40;;
58017;SDS011;43810;50.860;19.226;2022-07-04T09:46:54;2.80;;;2.47;;
58017;SDS011;43810;50.860;19.226;2022-07-04T09:49:21;2.60;;;2.22;;
58017;SDS011;43810;50.860;19.226;2022-07-04T09:51:48;2.92;;;2.33;;
58017;SDS011;43810;50.860;19.226;2022-07-04T09:54:24;5.68;;;2.55;;
58017;SDS011;43810;50.860;19.226;2022-07-04T09:56:56;4.18;;;2.38;;
58017;SDS011;43810;50.860;19.226;2022-07-04T09:59:23;6.25;;;2.95;;
58017;SDS011;43810;50.860;19.226;2022-07-04T10:01:50;2.95;;;2.03;;
58017;SDS011;43810;50.860;19.226;2022-07-04T10:04:16;5.60;;;2.35;;
58017;SDS011;43810;50.860;19.226;2022-07-04T10:06:43;3.15;;;2.28;;
58017;SDS011;43810;50.860;19.226;2022-07-04T10:09:16;3.58;;;2.42;;
58017;SDS011;43810;50.860;19.226;2022-07-04T10:11:44;2.92;;;2.60;;
58017;SDS011;43810;50.860;19.226;2022-07-04T10:14:12;2.95;;;2.40;;
58017;SDS011;43810;50.860;19.226;2022-07-04T10:16:39;2.63;;;2.28;;
58017;SDS011;43810;50.860;19.226;2022-07-04T10:19:07;2.67;;;2.47;;
58017;SDS011;43810;50.860;19.226;2022-07-04T10:21:33;4.95;;;2.42;;
58017;SDS011;43810;50.860;19.226;2022-07-04T10:23:59;3.97;;;2.80;;
58017;SDS011;43810;50.860;19.226;2022-07-04T10:26:26;5.78;;;2.38;;
58017;SDS011;43810;50.860;19.226;2022-07-04T10:28:55;3.78;;;2.45;;
58017;SDS011;43810;50.860;19.226;2022-07-04T10:31:22;4.55;;;2.60;;
58017;SDS011;43810;50.860;19.226;2022-07-04T10:33:51;5.80;;;2.33;;
58017;SDS011;43810;50.860;19.226;2022-07-04T10:38:46;3.75;;;2.80;;
58017;SDS011;43810;50.860;19.226;2022-07-04T10:41:16;3.30;;;3.00;;
58017;SDS011;43810;50.860;19.226;2022-07-04T10:48:49;4.72;;;2.92;;
58017;SDS011;43810;50.860;19.226;2022-07-04T10:57:08;3.58;;;3.28;;
58017;SDS011;43810;50.860;19.226;2022-07-04T11:04:53;4.97;;;2.97;;
58017;SDS011;43810;50.860;19.226;2022-07-04T11:13:01;2.83;;;2.50;;
58017;SDS011;43810;50.860;19.226;2022-07-04T11:17:58;3.33;;;2.75;;
58017;SDS011;43810;50.860;19.226;2022-07-04T11:20:36;2.70;;;2.50;;
58017;SDS011;43810;50.860;19.226;2022-07-04T11:23:06;2.67;;;2.47;;
58017;SDS011;43810;50.860;19.226;2022-07-04T11:25:33;3.55;;;2.72;;
58017;SDS011;43810;50.860;19.226;2022-07-04T11:30:52;2.95;;;2.65;;
58017;SDS011;43810;50.860;19.226;2022-07-04T11:33:19;3.83;;;3.10;;
58017;SDS011;43810;50.860;19.226;2022-07-04T11:36:07;3.30;;;2.90;;
58017;SDS011;43810;50.860;19.226;2022-07-04T11:41:13;3.83;;;3.35;;
58017;SDS011;43810;50.860;19.226;2022-07-04T11:44:01;3.10;;;2.47;;
58017;SDS011;43810;50.860;19.226;2022-07-04T11:46:46;5.47;;;2.78;;
58017;SDS011;43810;50.860;19.226;2022-07-04T11:49:12;3.85;;;2.88;;
58017;SDS011;43810;50.860;19.226;2022-07-04T11:51:42;3.95;;;2.70;;
58017;SDS011;43810;50.860;19.226;2022-07-04T11:54:08;3.60;;;3.30;;
58017;SDS011;43810;50.860;19.226;2022-07-04T11:56:35;3.00;;;2.70;;
58017;SDS011;43810;50.860;19.226;2022-07-04T11:59:11;6.05;;;3.00;;
58017;SDS011;43810;50.860;19.226;2022-07-04T12:01:39;2.90;;;2.63;;
58017;SDS011;43810;50.860;19.226;2022-07-04T12:04:12;4.78;;;2.80;;
58017;SDS011;43810;50.860;19.226;2022-07-04T12:06:42;5.70;;;2.95;;
58017;SDS011;43810;50.860;19.226;2022-07-04T12:09:09;3.05;;;2.50;;
58017;SDS011;43810;50.860;19.226;2022-07-04T12:14:20;3.58;;;2.97;;
58017;SDS011;43810;50.860;19.226;2022-07-04T12:16:46;3.92;;;2.25;;
58017;SDS011;43810;50.860;19.226;2022-07-04T12:19:12;3.20;;;2.40;;
58017;SDS011;43810;50.860;19.226;2022-07-04T12:21:38;3.78;;;2.47;;
58017;SDS011;43810;50.860;19.226;2022-07-04T12:24:05;2.92;;;2.70;;
58017;SDS011;43810;50.860;19.226;2022-07-04T12:26:31;3.42;;;2.50;;
58017;SDS011;43810;50.860;19.226;2022-07-04T12:28:57;3.33;;;2.65;;
58017;SDS011;43810;50.860;19.226;2022-07-04T12:31:39;3.45;;;2.80;;
58017;SDS011;43810;50.860;19.226;2022-07-04T12:34:17;2.50;;;2.30;;
58017;SDS011;43810;50.860;19.226;2022-07-04T12:36:52;2.90;;;2.60;;
58017;SDS011;43810;50.860;19.226;2022-07-04T12:39:32;2.42;;;2.22;;
58017;SDS011;43810;50.860;19.226;2022-07-04T12:42:06;2.95;;;2.40;;
58017;SDS011;43810;50.860;19.226;2022-07-04T12:44:32;2.60;;;2.40;;
58017;SDS011;43810;50.860;19.226;2022-07-04T12:46:58;3.25;;;2.70;;
58017;SDS011;43810;50.860;19.226;2022-07-04T12:49:24;4.80;;;2.53;;
58017;SDS011;43810;50.860;19.226;2022-07-04T12:51:50;3.33;;;2.50;;
58017;SDS011;43810;50.860;19.226;2022-07-04T12:54:15;3.08;;;2.53;;
58017;SDS011;43810;50.860;19.226;2022-07-04T12:56:43;3.03;;;2.78;;
58017;SDS011;43810;50.860;19.226;2022-07-04T12:59:11;3.45;;;3.15;;
58017;SDS011;43810;50.860;19.226;2022-07-04T13:01:42;3.47;;;3.17;;
58017;SDS011;43810;50.860;19.226;2022-07-04T13:04:08;3.28;;;2.47;;
58017;SDS011;43810;50.860;19.226;2022-07-04T13:06:34;3.85;;;2.70;;
58017;SDS011;43810;50.860;19.226;2022-07-04T13:09:01;3.50;;;2.30;;
58017;SDS011;43810;50.860;19.226;2022-07-04T13:11:28;3.00;;;2.80;;
58017;SDS011;43810;50.860;19.226;2022-07-04T13:14:12;2.88;;;2.67;;
58017;SDS011;43810;50.860;19.226;2022-07-04T13:16:38;3.00;;;2.30;;
58017;SDS011;43810;50.860;19.226;2022-07-04T13:19:03;3.30;;;2.20;;
58017;SDS011;43810;50.860;19.226;2022-07-04T13:21:30;2.50;;;2.30;;
58017;SDS011;43810;50.860;19.226;2022-07-04T13:23:55;2.40;;;2.20;;
58017;SDS011;43810;50.860;19.226;2022-07-04T13:26:21;5.72;;;2.50;;
58017;SDS011;43810;50.860;19.226;2022-07-04T13:28:47;2.60;;;2.40;;
58017;SDS011;43810;50.860;19.226;2022-07-04T13:31:13;2.45;;;2.25;;
58017;SDS011;43810;50.860;19.226;2022-07-04T13:33:39;2.85;;;2.50;;
58017;SDS011;43810;50.860;19.226;2022-07-04T13:36:05;3.15;;;2.60;;
58017;SDS011;43810;50.860;19.226;2022-07-04T13:38:32;2.80;;;2.55;;
58017;SDS011;43810;50.860;19.226;2022-07-04T13:41:03;3.45;;;2.63;;
58017;SDS011;43810;50.860;19.226;2022-07-04T13:43:30;4.93;;;3.33;;
58017;SDS011;43810;50.860;19.226;2022-07-04T13:45:56;3.85;;;2.78;;
58017;SDS011;43810;50.860;19.226;2022-07-04T13:48:22;3.30;;;2.83;;
58017;SDS011;43810;50.860;19.226;2022-07-04T13:50:50;4.60;;;2.80;;
58017;SDS011;43810;50.860;19.226;2022-07-04T13:53:16;4.45;;;2.92;;
58017;SDS011;43810;50.860;19.226;2022-07-04T13:55:41;4.65;;;2.90;;
58017;SDS011;43810;50.860;19.226;2022-07-04T13:58:10;3.65;;;2.88;;
58017;SDS011;43810;50.860;19.226;2022-07-04T14:00:37;3.08;;;2.55;;
58017;SDS011;43810;50.860;19.226;2022-07-04T14:03:06;3.42;;;2.90;;
58017;SDS011;43810;50.860;19.226;2022-07-04T14:05:32;3.00;;;2.60;;
58017;SDS011;43810;50.860;19.226;2022-07-04T14:07:58;3.80;;;2.60;;
58017;SDS011;43810;50.860;19.226;2022-07-04T14:10:24;2.75;;;2.55;;
58017;SDS011;43810;50.860;19.226;2022-07-04T14:12:50;3.53;;;2.78;;
58017;SDS011;43810;50.860;19.226;2022-07-04T14:15:16;3.40;;;3.08;;
58017;SDS011;43810;50.860;19.226;2022-07-04T14:17:42;3.25;;;2.95;;
58017;SDS011;43810;50.860;19.226;2022-07-04T14:20:08;4.53;;;2.65;;
58017;SDS011;43810;50.860;19.226;2022-07-04T14:22:35;3.78;;;2.88;;
58017;SDS011;43810;50.860;19.226;2022-07-04T14:25:02;2.80;;;2.50;;
58017;SDS011;43810;50.860;19.226;2022-07-04T14:27:28;2.75;;;2.40;;
58017;SDS011;43810;50.860;19.226;2022-07-04T14:29:54;3.97;;;2.45;;
58017;SDS011;43810;50.860;19.226;2022-07-04T14:32:19;6.38;;;2.90;;
58017;SDS011;43810;50.860;19.226;2022-07-04T14:34:45;3.58;;;2.67;;
58017;SDS011;43810;50.860;19.226;2022-07-04T14:37:11;2.65;;;2.30;;
58017;SDS011;43810;50.860;19.226;2022-07-04T14:39:37;2.50;;;2.30;;
58017;SDS011;43810;50.860;19.226;2022-07-04T14:42:03;3.05;;;2.75;;
58017;SDS011;43810;50.860;19.226;2022-07-04T14:44:29;4.05;;;3.10;;
58017;SDS011;43810;50.860;19.226;2022-07-04T14:46:55;3.90;;;3.17;;
58017;SDS011;43810;50.860;19.226;2022-07-04T14:49:21;3.63;;;3.30;;
58017;SDS011;43810;50.860;19.226;2022-07-04T14:51:47;6.70;;;3.03;;
58017;SDS011;43810;50.860;19.226;2022-07-04T14:54:13;3.85;;;2.80;;
58017;SDS011;43810;50.860;19.226;2022-07-04T14:56:39;3.63;;;2.40;;
58017;SDS011;43810;50.860;19.226;2022-07-04T14:59:05;4.75;;;2.28;;
58017;SDS011;43810;50.860;19.226;2022-07-04T15:01:31;3.75;;;2.30;;
58017;SDS011;43810;50.860;19.226;2022-07-04T15:03:57;4.47;;;2.38;;
58017;SDS011;43810;50.860;19.226;2022-07-04T15:06:22;3.03;;;2.20;;
58017;SDS011;43810;50.860;19.226;2022-07-04T15:08:49;2.53;;;2.30;;